GLD1793 LPFL-LPCR

Flight info

Callsign GLD1793
Flight time 0h 8m
Altitude 50000
Route CR476
Aircraft BE58/M-SDFGIRY/S

Departure

Time 2026-05-09 13:36
Airport Flores Airport (LPFL)

Arrival

Time 2026-05-09 13:45
Airport Corvo Airport (LPCR)
Time Latitude Longitude Altitude Speed Heading
2026-05-09 13:34 39.45648 -31.13164 94 ft 0 kts 341°
2026-05-09 13:36 39.45765 -31.13202 94 ft 56 kts 349°
2026-05-09 13:36 39.46332 -31.13360 217 ft 97 kts 349°
2026-05-09 13:36 39.47034 -31.13472 656 ft 112 kts
2026-05-09 13:36 39.47870 -31.13342 974 ft 128 kts
2026-05-09 13:37 39.48777 -31.13222 1368 ft 132 kts
2026-05-09 13:37 39.49669 -31.13136 1888 ft 127 kts
2026-05-09 13:37 39.50618 -31.13085 2061 ft 144 kts
2026-05-09 13:37 39.51649 -31.13008 2305 ft 148 kts
2026-05-09 13:38 39.52687 -31.12922 2553 ft 153 kts
2026-05-09 13:38 39.53759 -31.12798 2765 ft 155 kts
2026-05-09 13:38 39.54837 -31.12568 2938 ft 158 kts 10°
2026-05-09 13:38 39.55931 -31.12334 2975 ft 167 kts
2026-05-09 13:39 39.57097 -31.12132 3009 ft 171 kts
2026-05-09 13:39 39.58257 -31.11808 3078 ft 172 kts 17°
2026-05-09 13:39 39.59364 -31.11279 2945 ft 161 kts 18°
2026-05-09 13:39 39.60399 -31.10800 2631 ft 157 kts 18°
2026-05-09 13:40 39.61402 -31.10266 2315 ft 154 kts 21°
2026-05-09 13:40 39.62415 -31.09736 1732 ft 155 kts 20°
2026-05-09 13:40 39.63394 -31.09232 1084 ft 146 kts 18°
2026-05-09 13:40 39.64255 -31.08998 876 ft 104 kts 360°
2026-05-09 13:41 39.64903 -31.09198 641 ft 96 kts 347°
2026-05-09 13:41 39.65548 -31.09492 679 ft 102 kts 346°
2026-05-09 13:41 39.66227 -31.09821 758 ft 107 kts 344°
2026-05-09 13:41 39.66805 -31.10364 544 ft 105 kts 321°
2026-05-09 13:42 39.67097 -31.11197 59 ft 104 kts 285°
2026-05-09 13:42 39.67179 -31.11993 151 ft 92 kts 287°
2026-05-09 13:42 39.66643 -31.12573 371 ft 130 kts 179°
2026-05-09 13:42 39.65879 -31.12082 626 ft 124 kts 118°
2026-05-09 13:43 39.65636 -31.11169 894 ft 102 kts 77°
2026-05-09 13:43 39.65744 -31.10264 1096 ft 100 kts 66°
2026-05-09 13:43 39.65927 -31.09421 1304 ft 104 kts 61°
2026-05-09 13:43 39.66184 -31.08569 1527 ft 90 kts 34°
2026-05-09 13:44 39.66750 -31.08773 1314 ft 113 kts 314°
2026-05-09 13:44 39.66910 -31.09826 630 ft 123 kts 287°
2026-05-09 13:44 39.67035 -31.10843 160 ft 104 kts 292°
2026-05-09 13:44 39.67149 -31.11630 35 ft 72 kts 276°
2026-05-09 13:45 39.67179 -31.11896 32 ft 11 kts 270°
2026-05-09 13:45 39.67163 -31.11831 31 ft 12 kts 95°
2026-05-09 13:45 39.67153 -31.11718 32 ft 12 kts 97°
2026-05-09 13:45 39.67146 -31.11620 33 ft 9 kts 97°
2026-05-09 13:46 39.67142 -31.11543 34 ft 8 kts 91°
2026-05-09 13:46 39.67133 -31.11463 37 ft 13 kts 99°
2026-05-09 13:46 39.67100 -31.11356 40 ft 11 kts 135°
2026-05-09 13:46 39.67088 -31.11331 42 ft 0 kts 84°
2026-05-09 13:51 39.67109 -31.11306 36 ft 10 kts 351°
2026-05-09 13:51 39.67128 -31.11398 36 ft 44 kts 282°
2026-05-09 13:51 39.67148 -31.12103 129 ft 96 kts 273°
2026-05-09 13:51 39.66577 -31.12805 332 ft 146 kts 200°
2026-05-09 13:52 39.65453 -31.12972 540 ft 176 kts 182°
2026-05-09 13:52 39.64194 -31.12985 784 ft 185 kts 178°
2026-05-09 13:52 39.62885 -31.12922 1078 ft 189 kts 175°
2026-05-09 13:52 39.61553 -31.12798 1356 ft 194 kts 173°
2026-05-09 13:53 39.60196 -31.12690 1649 ft 195 kts 174°
2026-05-09 13:53 39.58826 -31.12528 1787 ft 204 kts 171°
2026-05-09 13:53 39.57398 -31.12266 1852 ft 212 kts 168°
2026-05-09 13:53 39.55950 -31.11906 1957 ft 207 kts 166°
2026-05-09 13:54 39.54516 -31.11475 1987 ft 214 kts 162°
2026-05-09 13:54 39.53130 -31.10979 2145 ft 207 kts 160°
2026-05-09 13:54 39.51747 -31.10431 2137 ft 207 kts 158°
2026-05-09 13:54 39.50370 -31.09850 2109 ft 211 kts 158°
2026-05-09 13:55 39.48967 -31.09238 2074 ft 212 kts 156°
2026-05-09 13:55 39.47605 -31.08615 2226 ft 205 kts 158°
2026-05-09 13:55 39.46236 -31.08068 2249 ft 206 kts 160°
2026-05-09 13:55 39.44844 -31.07577 2194 ft 210 kts 162°
2026-05-09 13:56 39.43436 -31.07102 2264 ft 207 kts 162°
2026-05-09 13:56 39.42085 -31.06694 2344 ft 188 kts 171°
2026-05-09 13:56 39.40849 -31.06816 2307 ft 174 kts 200°
2026-05-09 13:56 39.39938 -31.07703 2184 ft 159 kts 246°
2026-05-09 13:57 39.39673 -31.08991 1902 ft 138 kts 278°
2026-05-09 13:57 39.39837 -31.10089 1669 ft 118 kts 302°
2026-05-09 13:57 39.40248 -31.10943 1441 ft 109 kts 318°
2026-05-09 13:57 39.40798 -31.11576 1215 ft 102 kts 335°
2026-05-09 13:58 39.41445 -31.11957 957 ft 101 kts 344°
2026-05-09 13:58 39.42107 -31.12208 720 ft 98 kts 350°
2026-05-09 13:58 39.42544 -31.12333 604 ft 95 kts 350°
2026-05-09 13:58 39.43150 -31.12526 500 ft 83 kts 351°
2026-05-09 13:59 39.43679 -31.12660 404 ft 73 kts 351°
2026-05-09 13:59 39.44191 -31.12778 286 ft 75 kts 351°
2026-05-09 13:59 39.44859 -31.12952 126 ft 70 kts 348°
2026-05-09 13:59 39.45286 -31.13077 96 ft 53 kts 347°
2026-05-09 14:00 39.45493 -31.13123 94 ft 38 kts 349°
2026-05-09 14:00 39.45643 -31.13163 93 ft 29 kts 348°
2026-05-09 14:00 39.45813 -31.13169 90 ft 10 kts 68°
2026-05-09 14:00 39.45811 -31.13087 89 ft 9 kts 111°
2026-05-09 14:01 39.45814 -31.13068 89 ft 0 kts 19°